Time;durP1;ratioP1;P1;durP2;ratioP2;P2;SDS_P1;SDS_P2;PMS_P1;PMS_P2;Temp;Humidity;BMP_temperature;BMP_pressure;BME280_temperature;BME280_humidity;BME280_pressure;Samples;Min_cycle;Max_cycle;Signal;HPM_P1;HPM_P2
2023/07/12 00:00:27;;;;;;;0.00;0.00;;;;;;;19.11;100.00;100848.25;4992320;28;20566;-47
2023/07/12 00:02:53;;;;;;;0.00;0.00;;;;;;;19.00;100.00;100850.75;4992354;28;20105;-46
2023/07/12 00:05:19;;;;;;;0.00;0.00;;;;;;;18.88;100.00;100849.94;4992349;28;20030;-44
2023/07/12 00:07:45;;;;;;;0.00;0.00;;;;;;;18.65;100.00;100851.53;4990366;28;20477;-42
2023/07/12 00:10:21;;;;;;;0.00;0.00;;;;;;;18.65;100.00;100862.44;4992218;28;20054;-45
2023/07/12 00:12:46;;;;;;;0.00;0.00;;;;;;;18.59;100.00;100857.13;4991953;28;20030;-45
2023/07/12 00:15:16;;;;;;;0.00;0.00;;;;;;;18.47;100.00;100862.53;4983709;28;20050;-43
2023/07/12 00:17:41;;;;;;;0.00;0.00;;;;;;;18.46;100.00;100868.19;4980971;28;20022;-42
2023/07/12 00:20:31;;;;;;;0.00;0.00;;;;;;;18.40;100.00;100864.50;4992009;28;20384;-44
2023/07/12 00:22:57;;;;;;;0.00;0.00;;;;;;;18.14;100.00;100852.13;4988484;28;20056;-45
2023/07/12 00:25:25;;;;;;;0.00;0.00;;;;;;;18.08;100.00;100848.44;4991765;28;20117;-47
2023/07/12 00:27:51;;;;;;;0.00;0.00;;;;;;;18.02;100.00;100830.31;4996509;28;20121;-48
2023/07/12 00:30:22;;;;;;;0.00;0.00;;;;;;;17.83;100.00;100832.25;4991838;28;20121;-48
2023/07/12 00:32:51;;;;;;;0.00;0.00;;;;;;;17.82;100.00;100836.00;4986698;28;20052;-48
2023/07/12 00:35:20;;;;;;;0.00;0.00;;;;;;;17.77;100.00;100847.59;4990508;28;20023;-51
2023/07/12 00:37:45;;;;;;;0.00;0.00;;;;;;;17.76;100.00;100853.25;4991992;28;20282;-49
2023/07/12 00:40:18;;;;;;;0.00;0.00;;;;;;;17.81;100.00;100858.03;4991648;28;20030;-47
2023/07/12 00:42:45;;;;;;;0.00;0.00;;;;;;;17.80;100.00;100862.66;4991096;28;20747;-48
2023/07/12 00:45:12;;;;;;;0.00;0.00;;;;;;;17.88;100.00;100861.50;4987190;28;20069;-50
2023/07/12 00:47:37;;;;;;;0.00;0.00;;;;;;;17.90;100.00;100832.13;4985252;28;20030;-50
2023/07/12 00:50:16;;;;;;;0.00;0.00;;;;;;;17.93;100.00;100832.53;4983553;28;20033;-47
2023/07/12 00:52:41;;;;;;;0.00;0.00;;;;;;;17.87;100.00;100851.66;4972233;28;20046;-48
2023/07/12 00:55:44;;;;;;;0.00;0.00;;;;;;;17.82;100.00;100857.78;4987751;28;20026;-45
2023/07/12 00:58:10;;;;;;;0.00;0.00;;;;;;;17.80;100.00;100856.34;4991386;28;20046;-47
2023/07/12 01:00:35;;;;;;;0.00;0.00;;;;;;;17.85;100.00;100856.50;4996540;28;20076;-47
2023/07/12 01:03:01;;;;;;;0.00;0.00;;;;;;;17.78;100.00;100868.28;5006304;28;20481;-45
2023/07/12 01:05:26;;;;;;;0.00;0.00;;;;;;;17.70;100.00;100860.44;4990196;28;20038;-46
2023/07/12 01:07:51;;;;;;;0.00;0.00;;;;;;;17.80;100.00;100862.66;4991678;28;20030;-46
2023/07/12 01:10:17;;;;;;;0.00;0.00;;;;;;;17.71;100.00;100872.97;4986419;28;20457;-45
2023/07/12 01:12:42;;;;;;;0.00;0.00;;;;;;;17.65;100.00;100900.28;4990697;28;20038;-45
2023/07/12 01:15:09;;;;;;;0.00;0.00;;;;;;;17.64;100.00;100883.13;4990999;28;20030;-46
2023/07/12 01:17:34;;;;;;;0.00;0.00;;;;;;;17.72;100.00;100885.53;4991214;28;20092;-45
2023/07/12 01:20:00;;;;;;;0.00;0.00;;;;;;;17.69;100.00;100879.72;4990007;28;20120;-46
2023/07/12 01:22:25;;;;;;;0.00;0.00;;;;;;;17.69;100.00;100864.22;4990805;28;20053;-47
2023/07/12 01:24:51;;;;;;;0.00;0.00;;;;;;;17.78;100.00;100849.22;4986655;28;20499;-46
2023/07/12 01:27:23;;;;;;;0.00;0.00;;;;;;;17.81;100.00;100866.22;4990895;28;20038;-44
2023/07/12 01:29:49;;;;;;;0.00;0.00;;;;;;;17.82;100.00;100862.41;4990394;28;20030;-47
2023/07/12 01:32:14;;;;;;;0.00;0.00;;;;;;;17.86;100.00;100863.63;4991489;28;20093;-46
2023/07/12 01:34:40;;;;;;;0.00;0.00;;;;;;;17.76;100.00;100853.25;4986003;28;20448;-45
2023/07/12 01:37:06;;;;;;;0.00;0.00;;;;;;;17.74;100.00;100839.03;4984249;28;20223;-45
2023/07/12 01:39:34;;;;;;;0.00;0.00;;;;;;;17.75;100.00;100846.16;4990556;28;20034;-46
2023/07/12 01:42:00;;;;;;;0.00;0.00;;;;;;;17.69;100.00;100842.47;4991058;28;20176;-45
2023/07/12 01:44:25;;;;;;;0.00;0.00;;;;;;;17.83;100.00;100831.44;4990876;28;20548;-46
2023/07/12 01:46:50;;;;;;;0.00;0.00;;;;;;;17.75;100.00;100824.38;4990713;28;20088;-44
2023/07/12 01:49:16;;;;;;;0.00;0.00;;;;;;;17.80;100.00;100826.41;4990641;28;20066;-45
2023/07/12 01:51:41;;;;;;;0.00;0.00;;;;;;;17.88;100.00;100817.94;4990556;28;20086;-46
2023/07/12 01:54:06;;;;;;;0.00;0.00;;;;;;;17.97;100.00;100817.38;4994719;28;20034;-46
2023/07/12 01:56:32;;;;;;;0.00;0.00;;;;;;;18.06;100.00;100833.38;4990871;28;20025;-46
2023/07/12 01:58:57;;;;;;;0.00;0.00;;;;;;;18.00;100.00;100826.97;4990605;28;20038;-47
2023/07/12 02:01:22;;;;;;;0.00;0.00;;;;;;;17.87;100.00;100828.00;4990490;28;20033;-46
2023/07/12 02:03:48;;;;;;;0.00;0.00;;;;;;;17.88;100.00;100812.50;4990570;28;20085;-46
2023/07/12 02:06:13;;;;;;;0.00;0.00;;;;;;;17.84;100.00;100822.19;4990834;28;20427;-45
2023/07/12 02:08:38;;;;;;;0.00;0.00;;;;;;;17.77;100.00;100822.22;4991333;28;20121;-45
2023/07/12 02:11:04;;;;;;;0.00;0.00;;;;;;;17.80;100.00;100832.72;4984318;28;20066;-44
2023/07/12 02:13:29;;;;;;;0.00;0.00;;;;;;;17.85;100.00;100834.72;4985312;28;20032;-48
2023/07/12 02:15:54;;;;;;;0.00;0.00;;;;;;;17.81;100.00;100834.38;4999197;28;20112;-46
2023/07/12 02:18:20;;;;;;;0.00;0.00;;;;;;;17.82;100.00;100835.19;4995826;28;20125;-45
2023/07/12 02:20:45;;;;;;;0.00;0.00;;;;;;;17.81;100.00;100833.53;4989432;28;20469;-45
2023/07/12 02:23:11;;;;;;;0.00;0.00;;;;;;;17.88;100.00;100834.28;4989538;28;20064;-47
2023/07/12 02:25:36;;;;;;;0.00;0.00;;;;;;;17.88;100.00;100828.84;4990436;28;20033;-46
2023/07/12 02:28:02;;;;;;;0.00;0.00;;;;;;;17.88;100.00;100835.13;4990281;28;20057;-46
2023/07/12 02:30:29;;;;;;;0.00;0.00;;;;;;;17.81;100.00;100828.91;4989785;28;20413;-48
2023/07/12 02:32:54;;;;;;;0.00;0.00;;;;;;;17.83;100.00;100823.25;4990282;28;20319;-49
2023/07/12 02:35:22;;;;;;;0.00;0.00;;;;;;;17.81;100.00;100833.53;4990328;28;20038;-46
2023/07/12 02:37:47;;;;;;;0.00;0.00;;;;;;;17.76;100.00;100837.75;4990568;28;20042;-44
2023/07/12 02:40:13;;;;;;;0.00;0.00;;;;;;;17.72;100.00;100820.22;4990395;28;20034;-44
2023/07/12 02:42:39;;;;;;;0.00;0.00;;;;;;;17.72;100.00;100825.66;4978638;28;20053;-43
2023/07/12 02:45:06;;;;;;;0.00;0.00;;;;;;;17.70;100.00;100833.22;4991379;28;20120;-46
2023/07/12 02:47:31;;;;;;;0.00;0.00;;;;;;;17.69;100.00;100845.19;4992131;28;20037;-46
2023/07/12 02:49:56;;;;;;;0.00;0.00;;;;;;;17.58;100.00;100824.16;4992527;28;20022;-46
2023/07/12 02:52:22;;;;;;;0.00;0.00;;;;;;;17.62;100.00;100843.59;4978116;28;20073;-48
2023/07/12 02:54:47;;;;;;;0.00;0.00;;;;;;;17.57;100.00;100827.13;4974382;28;20102;-45
2023/07/12 02:57:14;;;;;;;0.00;0.00;;;;;;;17.53;100.00;100819.38;4992873;28;20026;-49
2023/07/12 02:59:39;;;;;;;0.00;0.00;;;;;;;17.52;100.00;100811.47;4994146;28;20393;-47
2023/07/12 03:02:06;;;;;;;0.00;0.00;;;;;;;17.58;100.00;100816.00;4993045;28;20038;-46
2023/07/12 03:04:31;;;;;;;0.00;0.00;;;;;;;17.62;100.00;100816.38;4993718;28;20535;-47
2023/07/12 03:06:57;;;;;;;0.00;0.00;;;;;;;17.65;100.00;100813.19;4993157;28;20057;-46
2023/07/12 03:09:22;;;;;;;0.10;0.10;;;;;;;17.53;100.00;100794.91;4992952;28;20416;-45
2023/07/12 03:11:48;;;;;;;0.00;0.00;;;;;;;17.55;100.00;100802.84;4993253;28;20034;-44
2023/07/12 03:14:15;;;;;;;0.00;0.00;;;;;;;17.57;100.00;100806.19;4993869;28;20472;-46
2023/07/12 03:16:41;;;;;;;0.00;0.00;;;;;;;17.55;100.00;100808.28;4987239;28;20034;-46
2023/07/12 03:19:06;;;;;;;0.00;0.00;;;;;;;17.49;100.00;100799.16;4990523;28;20019;-47
2023/07/12 03:21:31;;;;;;;0.00;0.00;;;;;;;17.48;100.00;100805.66;4993497;28;20023;-46
2023/07/12 03:23:57;;;;;;;0.00;0.00;;;;;;;17.50;100.00;100805.44;4993341;28;20072;-44
2023/07/12 03:26:23;;;;;;;0.00;0.00;;;;;;;17.45;100.00;100816.16;4992932;28;20121;-48
2023/07/12 03:28:48;;;;;;;0.00;0.00;;;;;;;17.51;100.00;100805.22;4993087;28;20026;-48
2023/07/12 03:31:15;;;;;;;0.00;0.00;;;;;;;17.45;100.00;100808.00;4992846;28;20023;-48
2023/07/12 03:33:42;;;;;;;0.00;0.00;;;;;;;17.45;100.00;100810.72;4981763;28;20026;-49
2023/07/12 03:36:07;;;;;;;0.00;0.00;;;;;;;17.51;100.00;100801.66;4992569;28;20282;-48
2023/07/12 03:38:33;;;;;;;0.00;0.00;;;;;;;17.44;100.00;100799.00;4991021;28;20149;-49
2023/07/12 03:41:01;;;;;;;0.00;0.00;;;;;;;17.38;100.00;100804.50;4993258;28;20673;-47
2023/07/12 03:43:26;;;;;;;0.00;0.00;;;;;;;17.30;100.00;100811.94;4992846;28;20045;-44
2023/07/12 03:45:53;;;;;;;0.00;0.00;;;;;;;17.31;100.00;100807.34;4992704;28;20469;-49
2023/07/12 03:48:18;;;;;;;0.00;0.00;;;;;;;17.20;100.00;100818.97;4992708;28;20569;-46
2023/07/12 03:50:47;;;;;;;0.00;0.00;;;;;;;17.11;100.00;100819.28;4992514;28;20141;-44
2023/07/12 03:53:12;;;;;;;0.00;0.00;;;;;;;17.15;100.00;100816.09;4993000;28;20138;-46
2023/07/12 03:55:42;;;;;;;0.00;0.00;;;;;;;17.19;100.00;100820.84;4994430;28;20526;-46
2023/07/12 03:58:10;;;;;;;0.00;0.00;;;;;;;17.14;100.00;100828.03;4992005;28;20026;-46
2023/07/12 04:00:38;;;;;;;;;;;;;;;17.17;100.00;100833.84;4989792;28;20031;-47
2023/07/12 04:03:03;;;;;;;0.00;0.00;;;;;;;17.18;100.00;100835.50;4981874;28;19967;-46
2023/07/12 04:05:29;;;;;;;0.00;0.00;;;;;;;17.23;100.00;100832.94;4991691;28;20109;-48
2023/07/12 04:07:56;;;;;;;0.00;0.00;;;;;;;17.29;100.00;100832.03;4991905;28;20057;-45
2023/07/12 04:10:22;;;;;;;0.00;0.00;;;;;;;17.32;100.00;100830.75;4992716;28;20026;-47
2023/07/12 04:12:47;;;;;;;0.00;0.00;;;;;;;17.34;100.00;100825.91;4993121;28;20041;-46
2023/07/12 04:15:13;;;;;;;0.00;0.00;;;;;;;17.42;100.00;100817.44;4992201;28;20080;-45
2023/07/12 04:17:38;;;;;;;0.00;0.00;;;;;;;17.37;100.00;100832.78;4990923;28;20157;-48
2023/07/12 04:20:05;;;;;;;0.00;0.00;;;;;;;17.40;100.00;100829.63;4990513;28;20117;-43
2023/07/12 04:22:30;;;;;;;0.00;0.00;;;;;;;17.40;100.00;100835.06;4992594;28;20030;-43
2023/07/12 04:24:56;;;;;;;0.00;0.00;;;;;;;17.47;100.00;100841.25;4975371;28;20033;-45
2023/07/12 04:27:21;;;;;;;0.00;0.00;;;;;;;17.49;100.00;100847.31;4978091;28;20049;-43
2023/07/12 04:29:48;;;;;;;0.00;0.00;;;;;;;17.58;100.00;100853.25;4990028;28;20097;-43
2023/07/12 04:32:14;;;;;;;0.00;0.00;;;;;;;17.59;100.00;100863.94;4995782;28;20026;-43
2023/07/12 04:34:39;;;;;;;0.00;0.00;;;;;;;17.52;100.00;100849.56;5010162;28;20044;-47
2023/07/12 04:37:06;;;;;;;0.00;0.00;;;;;;;17.57;100.00;100851.63;4993523;28;20035;-44
2023/07/12 04:39:32;;;;;;;0.00;0.00;;;;;;;17.70;100.00;100849.56;4990231;28;20040;-46
2023/07/12 04:41:57;;;;;;;0.00;0.00;;;;;;;17.69;100.00;100863.38;4987481;28;20550;-47
2023/07/12 04:44:22;;;;;;;0.00;0.00;;;;;;;17.66;100.00;100859.22;4986544;28;20038;-47
2023/07/12 04:46:48;;;;;;;0.00;0.00;;;;;;;17.72;100.00;100850.16;4988909;28;20565;-46
2023/07/12 04:49:13;;;;;;;0.00;0.00;;;;;;;17.72;100.00;100855.59;4989522;28;20050;-46
2023/07/12 04:51:38;;;;;;;0.00;0.00;;;;;;;17.80;100.00;100861.81;4988019;28;20466;-46
2023/07/12 04:54:04;;;;;;;0.00;0.00;;;;;;;17.84;100.00;100852.97;4989365;28;20563;-45
2023/07/12 04:56:29;;;;;;;0.00;0.00;;;;;;;17.90;100.00;100862.09;4989718;28;20041;-46
2023/07/12 04:58:55;;;;;;;0.00;0.00;;;;;;;17.93;100.00;100853.47;4989708;28;20113;-46
2023/07/12 05:01:21;;;;;;;0.00;0.00;;;;;;;17.91;100.00;100858.34;4982889;28;20543;-49
2023/07/12 05:03:47;;;;;;;0.00;0.00;;;;;;;17.95;100.00;100852.16;4972567;28;20042;-46
2023/07/12 05:06:13;;;;;;;0.00;0.00;;;;;;;17.99;100.00;100858.00;4989055;28;20030;-46
2023/07/12 05:08:38;;;;;;;0.00;0.00;;;;;;;17.98;100.00;100862.63;4983638;28;20034;-47
2023/07/12 05:11:03;;;;;;;0.00;0.00;;;;;;;18.05;100.00;100865.25;4979569;28;20034;-47
2023/07/12 05:13:29;;;;;;;0.00;0.00;;;;;;;17.95;100.00;100862.25;4988772;28;20081;-47
2023/07/12 05:15:55;;;;;;;0.00;0.00;;;;;;;18.03;100.00;100859.19;4985274;28;20054;-47
2023/07/12 05:18:21;;;;;;;0.00;0.00;;;;;;;18.10;100.00;100870.81;4978798;28;20050;-48
2023/07/12 05:20:48;;;;;;;0.00;0.00;;;;;;;18.17;100.00;100868.84;4978509;28;20041;-46
2023/07/12 05:23:13;;;;;;;0.00;0.00;;;;;;;18.21;100.00;100869.19;4983439;28;20121;-46
2023/07/12 05:25:38;;;;;;;0.00;0.00;;;;;;;18.34;100.00;100866.28;4981146;28;20444;-47
2023/07/12 05:28:04;;;;;;;0.00;0.00;;;;;;;18.43;100.00;100866.78;4981581;28;20113;-48
2023/07/12 05:30:30;;;;;;;0.00;0.00;;;;;;;18.36;100.00;100872.34;4981316;28;20042;-43
2023/07/12 05:32:56;;;;;;;0.00;0.00;;;;;;;18.32;100.00;100883.94;4981849;28;20043;-47
2023/07/12 05:35:21;;;;;;;0.00;0.00;;;;;;;18.18;100.00;100900.47;4978811;28;20487;-45
2023/07/12 05:37:48;;;;;;;0.00;0.00;;;;;;;18.10;100.00;100906.22;4984538;28;20023;-46
2023/07/12 05:40:14;;;;;;;0.00;0.00;;;;;;;17.95;100.00;100901.19;4982226;28;20374;-46
2023/07/12 05:42:41;;;;;;;0.00;0.00;;;;;;;17.89;100.00;100895.84;4986940;28;20546;-49
2023/07/12 05:45:08;;;;;;;0.00;0.00;;;;;;;17.90;100.00;100913.81;4983829;28;20042;-46
2023/07/12 05:47:33;;;;;;;0.00;0.00;;;;;;;17.94;100.00;100907.69;4982370;28;20034;-44
2023/07/12 05:49:59;;;;;;;0.00;0.00;;;;;;;18.11;100.00;100907.88;4984524;28;20081;-47
2023/07/12 05:52:24;;;;;;;0.00;0.00;;;;;;;18.27;100.00;100906.41;4980946;28;20074;-49
2023/07/12 05:54:50;;;;;;;0.00;0.00;;;;;;;18.46;100.00;100901.75;4983430;28;20034;-47
2023/07/12 05:57:16;;;;;;;0.00;0.00;;;;;;;18.47;100.00;100906.13;4984476;28;20447;-45
2023/07/12 05:59:41;;;;;;;0.00;0.00;;;;;;;18.42;100.00;100903.28;4982424;28;20442;-46
2023/07/12 06:02:12;;;;;;;0.10;0.10;;;;;;;18.47;100.00;100919.75;4982194;28;20027;-41
2023/07/12 06:04:37;;;;;;;0.00;0.00;;;;;;;17.95;100.00;100933.03;4980047;28;20034;-45
2023/07/12 06:07:02;;;;;;;0.00;0.00;;;;;;;17.71;100.00;100943.75;4980808;28;20388;-51
2023/07/12 06:09:28;;;;;;;0.00;0.00;;;;;;;17.50;100.00;100957.81;4983401;28;20023;-50
2023/07/12 06:11:53;;;;;;;0.00;0.00;;;;;;;17.44;100.00;100954.09;4984988;28;20018;-51
2023/07/12 06:14:18;;;;;;;0.00;0.00;;;;;;;17.52;100.00;100974.75;4980785;28;20026;-50
2023/07/12 06:16:44;;;;;;;0.00;0.00;;;;;;;17.53;100.00;100979.13;4978331;28;20188;-48
2023/07/12 06:19:10;;;;;;;0.00;0.00;;;;;;;17.55;100.00;100979.72;4990873;28;20027;-47
2023/07/12 06:21:35;;;;;;;0.00;0.00;;;;;;;17.72;100.00;100983.53;4994215;28;20060;-46
2023/07/12 06:24:00;;;;;;;0.00;0.00;;;;;;;17.97;100.00;100979.94;4994747;28;20157;-45
2023/07/12 06:26:26;;;;;;;0.00;0.00;;;;;;;18.35;100.00;100987.84;4993257;28;20523;-47
2023/07/12 06:28:51;;;;;;;0.00;0.00;;;;;;;18.74;100.00;100966.53;4994195;28;20027;-47
2023/07/12 06:31:17;;;;;;;0.00;0.00;;;;;;;19.00;100.00;100957.13;4994640;28;20388;-46
2023/07/12 06:33:42;;;;;;;0.00;0.00;;;;;;;19.58;100.00;100943.72;4994753;28;20038;-46
2023/07/12 06:36:08;;;;;;;0.00;0.00;;;;;;;20.13;100.00;100943.28;4994455;28;20080;-46
2023/07/12 06:38:34;;;;;;;0.00;0.00;;;;;;;20.25;100.00;100924.09;4994736;28;20038;-47
2023/07/12 06:40:59;;;;;;;0.00;0.00;;;;;;;20.55;100.00;100924.69;4994510;28;20102;-47
2023/07/12 06:43:25;;;;;;;0.00;0.00;;;;;;;20.54;100.00;100928.50;4993070;28;20026;-47
2023/07/12 06:45:50;;;;;;;0.00;0.00;;;;;;;20.01;100.00;100924.22;4994192;28;20178;-48
2023/07/12 06:48:16;;;;;;;0.00;0.00;;;;;;;19.71;100.00;100927.13;4988685;28;20378;-50
2023/07/12 06:50:41;;;;;;;0.00;0.00;;;;;;;19.50;100.00;100934.00;4997239;28;20488;-44
2023/07/12 06:53:07;;;;;;;0.00;0.00;;;;;;;19.41;100.00;100935.44;4975376;28;20026;-45
2023/07/12 06:55:32;;;;;;;0.00;0.00;;;;;;;19.33;100.00;100944.81;4981858;28;20487;-46
2023/07/12 06:57:58;;;;;;;0.00;0.00;;;;;;;19.27;100.00;100940.28;4990043;28;20058;-47
2023/07/12 07:00:23;;;;;;;0.00;0.00;;;;;;;19.15;100.00;100947.66;4992520;28;20076;-47
2023/07/12 07:02:49;;;;;;;0.00;0.00;;;;;;;19.13;100.00;100950.63;4993520;28;20026;-47
2023/07/12 07:05:15;;;;;;;0.00;0.00;;;;;;;18.97;100.00;100957.59;4992667;28;20122;-47
2023/07/12 07:07:40;;;;;;;0.00;0.00;;;;;;;18.81;100.00;100958.28;4996683;28;20447;-49
2023/07/12 07:10:06;;;;;;;0.00;0.00;;;;;;;18.72;100.00;100959.63;4993588;28;20109;-47
2023/07/12 07:12:31;;;;;;;0.00;0.00;;;;;;;18.68;100.00;100959.28;4993968;28;20034;-48
2023/07/12 07:14:56;;;;;;;0.00;0.00;;;;;;;18.64;100.00;100969.84;4993305;28;20200;-42
2023/07/12 07:17:22;;;;;;;0.00;0.00;;;;;;;18.49;100.00;100977.59;4993229;28;20030;-47
2023/07/12 07:19:47;;;;;;;0.00;0.00;;;;;;;18.50;100.00;100983.88;4994722;28;20036;-47
2023/07/12 07:22:12;;;;;;;0.00;0.00;;;;;;;18.61;100.00;100989.34;4980585;28;20449;-45
2023/07/12 07:24:38;;;;;;;0.00;0.00;;;;;;;18.73;100.00;100994.03;4986069;28;20042;-48
2023/07/12 07:27:04;;;;;;;0.00;0.00;;;;;;;18.70;100.00;100983.59;4982805;28;20117;-46
2023/07/12 07:29:29;;;;;;;0.00;0.00;;;;;;;18.69;100.00;100990.91;4994394;28;20092;-44
2023/07/12 07:31:55;;;;;;;0.00;0.00;;;;;;;18.93;100.00;100991.88;4992939;28;20157;-46
2023/07/12 07:34:20;;;;;;;0.00;0.00;;;;;;;19.07;100.00;100984.31;4992547;28;20125;-50
2023/07/12 07:36:46;;;;;;;0.00;0.00;;;;;;;19.62;100.00;101002.25;4993344;28;20033;-46
2023/07/12 07:39:11;;;;;;;0.00;0.00;;;;;;;20.24;100.00;100986.13;4993687;28;20499;-44
2023/07/12 07:41:36;;;;;;;0.00;0.00;;;;;;;20.51;100.00;100991.00;4992661;28;20109;-48
2023/07/12 07:44:03;;;;;;;0.00;0.00;;;;;;;20.34;100.00;100985.50;4994799;28;20039;-42
2023/07/12 07:46:28;;;;;;;0.00;0.00;;;;;;;20.28;100.00;100991.94;4994596;28;20034;-46
2023/07/12 07:48:54;;;;;;;0.00;0.00;;;;;;;20.22;100.00;100999.22;4993660;28;20030;-47
2023/07/12 07:51:19;;;;;;;0.00;0.00;;;;;;;20.44;100.00;100999.38;4992272;28;20575;-50
2023/07/12 07:53:44;;;;;;;0.00;0.00;;;;;;;20.53;100.00;101002.53;4980778;28;20125;-48
2023/07/12 07:56:11;;;;;;;0.00;0.00;;;;;;;20.66;100.00;100996.81;4992750;28;20049;-48
2023/07/12 07:58:36;;;;;;;0.00;0.00;;;;;;;20.90;100.00;101000.25;4993041;28;20149;-49
2023/07/12 08:01:02;;;;;;;0.00;0.00;;;;;;;20.75;100.00;101000.81;4992689;28;20144;-49
2023/07/12 08:03:29;;;;;;;0.00;0.00;;;;;;;20.60;100.00;101016.94;4992232;28;20034;-48
2023/07/12 08:06:01;;;;;;;0.00;0.00;;;;;;;20.66;100.00;101007.75;4992174;28;20334;-47
2023/07/12 08:08:28;;;;;;;0.00;0.00;;;;;;;21.36;100.00;101014.69;4992655;28;20145;-43
2023/07/12 08:10:54;;;;;;;0.00;0.00;;;;;;;21.01;100.00;101004.84;4986725;28;20035;-44
2023/07/12 08:13:19;;;;;;;0.00;0.00;;;;;;;21.07;100.00;101007.66;4979241;28;20034;-46
2023/07/12 08:15:45;;;;;;;0.00;0.00;;;;;;;21.46;100.00;101005.88;4992744;28;20105;-46
2023/07/12 08:18:12;;;;;;;0.00;0.00;;;;;;;21.37;100.00;101018.25;4992648;28;20030;-54
2023/07/12 08:20:38;;;;;;;0.00;0.00;;;;;;;21.30;100.00;101017.59;4992200;28;20075;-49
2023/07/12 08:23:04;;;;;;;0.00;0.00;;;;;;;21.30;100.00;101023.94;4991684;28;20042;-46
2023/07/12 08:25:30;;;;;;;0.00;0.00;;;;;;;21.21;100.00;101023.47;4992304;28;20030;-46
2023/07/12 08:27:55;;;;;;;0.00;0.00;;;;;;;21.21;100.00;101030.88;4992082;28;20030;-48
2023/07/12 08:30:21;;;;;;;0.00;0.00;;;;;;;20.97;100.00;101024.72;4992131;28;20069;-47
2023/07/12 08:32:46;;;;;;;0.00;0.00;;;;;;;20.89;100.00;101027.84;4982810;28;20471;-46
2023/07/12 08:35:11;;;;;;;0.00;0.00;;;;;;;20.68;100.00;101040.31;4973022;28;20382;-44
2023/07/12 08:37:37;;;;;;;0.00;0.00;;;;;;;20.58;100.00;101049.97;4979599;28;20061;-48
2023/07/12 08:40:04;;;;;;;0.00;0.00;;;;;;;20.65;100.00;101044.38;4991617;28;20042;-44
2023/07/12 08:42:39;;;;;;;0.00;0.00;;;;;;;21.50;100.00;101039.88;4989402;28;20038;-44
2023/07/12 08:45:32;;;;;;;0.00;0.00;;;;;;;22.69;100.00;101035.69;4991927;28;20354;-44
2023/07/12 08:48:03;;;;;;;0.00;0.00;;;;;;;23.72;100.00;101037.44;4991827;28;20049;-48
2023/07/12 08:50:35;;;;;;;0.00;0.00;;;;;;;24.65;100.00;101045.06;4991442;28;20588;-46
2023/07/12 08:53:01;;;;;;;0.00;0.00;;;;;;;25.16;100.00;101050.69;4972563;28;20038;-44
2023/07/12 08:55:28;;;;;;;0.00;0.00;;;;;;;25.45;100.00;101047.38;4978096;28;20034;-45
2023/07/12 08:57:58;;;;;;;0.00;0.00;;;;;;;25.54;100.00;101051.25;4990537;28;20034;-48
2023/07/12 09:00:27;;;;;;;0.00;0.00;;;;;;;25.79;100.00;101049.53;4990377;28;20449;-47
2023/07/12 09:02:52;;;;;;;0.00;0.00;;;;;;;24.77;100.00;101052.25;4983920;28;20027;-47
2023/07/12 09:05:24;;;;;;;0.00;0.00;;;;;;;23.55;100.00;101053.25;4975558;28;20030;-46
2023/07/12 09:08:00;;;;;;;0.00;0.00;;;;;;;22.48;100.00;101044.78;4975861;28;20030;-47
2023/07/12 09:10:29;;;;;;;0.00;0.00;;;;;;;22.26;100.00;101058.50;4975164;28;20022;-46
2023/07/12 09:12:58;;;;;;;0.00;0.00;;;;;;;22.22;100.00;101046.38;4974751;28;20033;-44
2023/07/12 09:15:31;;;;;;;0.00;0.00;;;;;;;21.76;100.00;101063.00;4976443;28;20038;-45
2023/07/12 09:17:57;;;;;;;0.00;0.00;;;;;;;22.68;100.00;101063.41;4995687;28;20050;-43
2023/07/12 09:20:28;;;;;;;0.00;0.00;;;;;;;23.32;100.00;101071.75;4994926;28;20041;-43
2023/07/12 09:22:54;;;;;;;0.00;0.00;;;;;;;23.42;100.00;101065.53;4992982;28;20125;-44
2023/07/12 09:25:25;;;;;;;0.00;0.00;;;;;;;23.96;100.00;101065.38;4991882;28;20038;-44
2023/07/12 09:27:50;;;;;;;0.00;0.00;;;;;;;24.21;100.00;101072.94;4991660;28;20034;-43
2023/07/12 09:30:23;;;;;;;0.00;0.00;;;;;;;24.04;100.00;101072.28;4991778;28;20034;-44
2023/07/12 09:32:49;;;;;;;0.00;0.00;;;;;;;23.70;100.00;101072.59;4989990;28;20038;-45
2023/07/12 09:35:38;;;;;;;0.00;0.00;;;;;;;24.17;100.00;101076.47;4991242;28;20175;-42
2023/07/12 09:38:09;;;;;;;0.00;0.00;;;;;;;25.19;100.00;101069.41;4991201;28;20034;-44
2023/07/12 09:40:41;;;;;;;0.00;0.00;;;;;;;25.13;100.00;101078.75;4991327;28;20034;-47
2023/07/12 09:43:18;;;;;;;0.00;0.00;;;;;;;24.85;100.00;101076.50;4991168;28;20840;-42
2023/07/12 09:46:23;;;;;;;0.00;0.00;;;;;;;24.40;100.00;101075.22;4991584;28;20046;-45
2023/07/12 09:48:53;;;;;;;0.00;0.00;;;;;;;24.24;100.00;101063.31;4990143;28;20523;-46
2023/07/12 09:51:41;;;;;;;0.00;0.00;;;;;;;23.67;100.00;101073.97;4991007;28;20063;-44
2023/07/12 09:54:22;;;;;;;0.00;0.00;;;;;;;24.51;100.00;101077.78;4989977;28;20089;-42
2023/07/12 09:56:52;;;;;;;0.00;0.00;;;;;;;25.00;100.00;101075.69;4995362;28;20437;-47
2023/07/12 09:59:29;;;;;;;0.00;0.00;;;;;;;25.52;96.19;101081.00;4994454;28;20046;-44
2023/07/12 10:02:01;;;;;;;0.00;0.00;;;;;;;25.85;95.16;101073.25;4993989;28;20042;-44
2023/07/12 10:04:30;;;;;;;0.00;0.00;;;;;;;25.87;95.68;101071.06;4994895;28;20105;-44
2023/07/12 10:06:55;;;;;;;0.00;0.00;;;;;;;25.84;95.78;101061.41;4992235;28;20116;-48
2023/07/12 10:09:27;;;;;;;0.00;0.00;;;;;;;25.87;97.54;101079.34;4994468;28;20793;-46
2023/07/12 10:12:23;;;;;;;0.00;0.00;;;;;;;25.78;94.83;101069.97;4993199;28;20038;-41
2023/07/12 10:14:49;;;;;;;0.00;0.00;;;;;;;25.40;98.29;101083.19;4994631;28;20473;-43
2023/07/12 10:17:24;;;;;;;0.00;0.00;;;;;;;25.06;100.00;101072.66;4994725;28;20113;-44
2023/07/12 10:19:53;;;;;;;0.00;0.00;;;;;;;24.62;100.00;101078.66;4993317;28;20116;-43
2023/07/12 10:22:35;;;;;;;0.00;0.00;;;;;;;24.18;100.00;101078.97;4991526;28;20030;-44
2023/07/12 10:25:06;;;;;;;0.00;0.00;;;;;;;24.32;100.00;101080.13;4993371;28;20735;-43
2023/07/12 10:27:35;;;;;;;0.00;0.00;;;;;;;25.09;100.00;101083.16;4993546;28;20034;-45
2023/07/12 10:30:09;;;;;;;0.00;0.00;;;;;;;25.46;99.87;101082.13;4993056;28;20034;-46
2023/07/12 10:32:40;;;;;;;0.00;0.00;;;;;;;25.06;100.00;101093.88;4984587;28;20031;-46
2023/07/12 10:35:27;;;;;;;0.00;0.00;;;;;;;25.09;99.14;101098.84;4992820;28;20480;-49
2023/07/12 10:38:03;;;;;;;0.00;0.00;;;;;;;25.29;98.04;101103.59;4994151;28;20058;-47
2023/07/12 10:40:43;;;;;;;0.00;0.00;;;;;;;25.54;95.81;101105.50;4993966;28;20483;-45
2023/07/12 10:43:13;;;;;;;0.00;0.00;;;;;;;25.02;97.99;101099.13;4994134;28;20030;-47
2023/07/12 10:45:39;;;;;;;0.00;0.00;;;;;;;24.64;99.89;101103.94;4991963;28;20116;-44
2023/07/12 10:48:06;;;;;;;0.00;0.00;;;;;;;24.63;100.00;101110.56;4989568;28;20086;-45
2023/07/12 10:50:38;;;;;;;0.00;0.00;;;;;;;24.58;98.26;101104.22;4974383;28;20087;-46
2023/07/12 10:53:20;;;;;;;0.00;0.00;;;;;;;24.73;98.54;101104.28;4973437;28;20049;-46
2023/07/12 10:56:16;;;;;;;0.00;0.00;;;;;;;24.38;100.00;101110.41;4994269;28;20031;-45
2023/07/12 10:58:59;;;;;;;0.00;0.00;;;;;;;24.16;100.00;101105.91;4994465;28;20625;-46
2023/07/12 11:01:43;;;;;;;0.00;0.00;;;;;;;24.80;100.00;101118.59;4994048;28;20026;-45
2023/07/12 11:04:32;;;;;;;0.00;0.00;;;;;;;23.97;100.00;101121.19;4979480;28;20030;-45
2023/07/12 11:07:24;;;;;;;0.00;0.00;;;;;;;24.03;100.00;101120.94;4992372;28;20038;-42
2023/07/12 11:09:54;;;;;;;0.00;0.00;;;;;;;24.48;99.31;101133.31;4994303;28;20027;-44
2023/07/12 11:12:25;;;;;;;0.00;0.00;;;;;;;24.51;96.59;101137.47;4992898;28;20084;-47
2023/07/12 11:14:51;;;;;;;0.00;0.00;;;;;;;23.90;98.06;101129.66;4992955;28;20049;-44
2023/07/12 11:17:22;;;;;;;0.00;0.00;;;;;;;23.72;100.00;101130.06;4993077;28;20057;-44
2023/07/12 11:19:50;;;;;;;0.00;0.00;;;;;;;23.92;99.71;101132.16;4991972;28;20038;-46